< < Back
Terminal Aerodrome Forecast


Current Version              Previous Versions:   1  2  3  4  5  6  7  8  9  

Terminal Aerodrome Forecast

617
FTUS44 KHUN 301148 CCA
TAFHSV
TAF COR
KHSV 301148Z 3012/0112 VRB03KT 6SM BR BKN008
     FM301500 VRB03KT P6SM SCT040 SCT250
     FM302300 VRB03KT P6SM SCT250=

Latest METAR

661
SAUS80 KWBC 301100 RRA
MTRHSV
METAR KHSV 301053Z 00000KT 6SM BR SCT005 17/15 A2996 RMK AO2 SLP139
FIRST T01670150


USA.gov is the U.S. government's official web portal to all federal, state and local government web resources and services.